createdAt,value
2022-10-15T00:00:05.833Z,2.51
2022-10-15T00:01:11.556Z,2.50
2022-10-15T00:02:13.722Z,2.40
2022-10-15T00:03:16.529Z,2.45
2022-10-15T00:04:18.555Z,2.42
2022-10-15T00:05:21.938Z,2.45
2022-10-15T00:06:23.996Z,2.45
2022-10-15T00:07:28.307Z,2.43
2022-10-15T00:08:30.616Z,2.44
2022-10-15T00:09:32.491Z,2.42
2022-10-15T00:10:35.333Z,2.40
2022-10-15T00:11:37.256Z,2.38
2022-10-15T00:12:40.172Z,2.41
2022-10-15T00:13:42.601Z,2.33
2022-10-15T00:14:44.488Z,2.41
2022-10-15T00:15:46.383Z,2.17
2022-10-15T00:16:49.367Z,2.35
2022-10-15T00:17:51.822Z,2.46
2022-10-15T00:18:58.795Z,2.50
2022-10-15T00:20:01.747Z,2.53
2022-10-15T00:21:09.007Z,2.55
2022-10-15T00:22:10.941Z,2.55
2022-10-15T00:23:12.851Z,2.60
2022-10-15T00:24:15.108Z,2.61
2022-10-15T00:25:17.292Z,2.62
2022-10-15T00:26:22.294Z,2.62
2022-10-15T00:27:24.379Z,2.60
2022-10-15T00:28:29.485Z,2.64
2022-10-15T00:29:30.168Z,2.61
2022-10-15T00:30:32.541Z,2.65
2022-10-15T00:31:35.080Z,2.68
2022-10-15T00:32:36.992Z,2.66
2022-10-15T00:33:39.308Z,2.65
2022-10-15T00:34:41.270Z,2.66
2022-10-15T00:35:43.144Z,2.64
2022-10-15T00:36:45.472Z,2.67
2022-10-15T00:37:47.363Z,2.67
2022-10-15T00:38:50.390Z,2.75
2022-10-15T00:39:52.674Z,2.74
2022-10-15T00:40:55.250Z,2.73
2022-10-15T00:41:57.355Z,2.79
2022-10-15T00:42:59.345Z,2.80
2022-10-15T00:45:15.820Z,2.88
2022-10-15T00:46:27.782Z,2.77
2022-10-15T00:47:45.786Z,2.75
2022-10-15T00:48:50.744Z,2.77
2022-10-15T00:49:56.482Z,2.77
2022-10-15T00:51:01.668Z,2.83
2022-10-15T00:52:07.544Z,2.83
2022-10-15T00:53:09.865Z,2.84
2022-10-15T00:54:12.638Z,2.85
2022-10-15T00:55:24.084Z,2.80
2022-10-15T00:56:28.977Z,2.76
2022-10-15T00:57:32.490Z,2.82
2022-10-15T00:58:35.674Z,2.80
2022-10-15T00:59:41.668Z,2.73
2022-10-15T01:00:43.961Z,2.78
2022-10-15T01:01:47.408Z,2.81
2022-10-15T01:02:49.557Z,2.82
2022-10-15T01:03:54.621Z,2.81
2022-10-15T01:04:56.675Z,2.83
2022-10-15T01:05:58.888Z,2.78
2022-10-15T01:07:00.985Z,2.77
2022-10-15T01:08:02.845Z,2.77
2022-10-15T01:09:05.266Z,2.76
2022-10-15T01:10:10.513Z,2.81
2022-10-15T01:11:18.957Z,2.79
2022-10-15T01:12:50.601Z,2.80
2022-10-15T01:14:20.628Z,2.80
2022-10-15T01:15:44.729Z,2.51
2022-10-15T01:16:56.699Z,2.74
2022-10-15T01:18:11.599Z,2.62
2022-10-15T01:19:29.550Z,2.68
2022-10-15T01:20:53.230Z,2.52
2022-10-15T01:22:16.739Z,2.57
2022-10-15T01:23:31.221Z,2.57
2022-10-15T01:24:45.743Z,2.69
2022-10-15T01:26:15.979Z,2.70
2022-10-15T01:27:36.464Z,2.66
2022-10-15T01:28:48.089Z,2.67
2022-10-15T01:30:21.811Z,2.67
2022-10-15T01:31:39.676Z,2.71
2022-10-15T01:32:45.685Z,2.78
2022-10-15T01:34:00.469Z,2.72
2022-10-15T01:35:12.091Z,2.77
2022-10-15T01:37:41.390Z,2.82
2022-10-15T01:38:59.550Z,2.66
2022-10-15T01:40:08.505Z,2.62
2022-10-15T01:41:14.205Z,2.58
2022-10-15T01:42:19.982Z,2.51
2022-10-15T01:43:50.099Z,2.52
2022-10-15T01:44:55.777Z,2.55
2022-10-15T01:46:01.463Z,2.57
2022-10-15T01:47:07.211Z,2.57
2022-10-15T01:48:11.539Z,2.51
2022-10-15T01:49:17.222Z,2.59
2022-10-15T01:50:23.078Z,2.67
2022-10-15T01:51:27.277Z,2.65
2022-10-15T01:52:33.138Z,2.66
2022-10-15T01:53:36.567Z,2.73
2022-10-15T01:54:39.584Z,2.82
2022-10-15T01:55:44.730Z,2.87
2022-10-15T01:56:49.382Z,2.85
2022-10-15T01:57:53.707Z,2.87
2022-10-15T01:58:56.837Z,2.89
2022-10-15T01:59:59.952Z,2.85
2022-10-15T02:01:02.428Z,2.84
2022-10-15T02:02:04.656Z,2.83
2022-10-15T02:03:06.541Z,2.81
2022-10-15T02:04:24.157Z,2.85
2022-10-15T02:05:35.650Z,2.90
2022-10-15T02:06:41.482Z,2.97
2022-10-15T02:08:04.083Z,2.98
2022-10-15T02:09:15.934Z,3.08
2022-10-15T02:10:38.562Z,3.18
2022-10-15T02:12:56.039Z,3.36
2022-10-15T02:14:07.564Z,3.24
2022-10-15T02:15:17.417Z,3.22
2022-10-15T02:16:47.156Z,3.19
2022-10-15T02:18:08.337Z,3.17
2022-10-15T02:19:31.042Z,3.15
2022-10-15T02:20:39.738Z,3.25
2022-10-15T02:22:00.489Z,3.25
2022-10-15T02:23:06.186Z,3.27
2022-10-15T02:24:21.140Z,3.30
2022-10-15T02:25:25.106Z,3.30
2022-10-15T02:26:29.750Z,3.31
2022-10-15T02:27:33.474Z,3.28
2022-10-15T02:28:37.911Z,3.34
2022-10-15T02:29:42.193Z,3.40
2022-10-15T02:30:47.699Z,3.43
2022-10-15T02:31:51.927Z,3.50
2022-10-15T02:32:57.358Z,3.46
2022-10-15T02:34:03.070Z,3.46
2022-10-15T02:35:10.765Z,3.46
2022-10-15T02:36:14.412Z,3.46
2022-10-15T02:37:22.997Z,3.47
2022-10-15T02:38:28.657Z,3.43
2022-10-15T02:39:31.058Z,3.38
2022-10-15T02:40:35.108Z,3.48
2022-10-15T02:41:38.514Z,3.41
2022-10-15T02:42:40.448Z,3.44
2022-10-15T02:43:42.580Z,3.44
2022-10-15T02:44:45.192Z,3.40
2022-10-15T02:45:48.881Z,3.45
2022-10-15T02:46:50.888Z,3.43
2022-10-15T02:47:52.759Z,3.43
2022-10-15T02:48:54.768Z,3.43
2022-10-15T02:49:56.765Z,3.39
2022-10-15T02:50:58.760Z,3.39
2022-10-15T02:52:00.653Z,3.48
2022-10-15T02:53:03.453Z,3.50
2022-10-15T02:54:06.400Z,3.53
2022-10-15T02:55:09.188Z,3.58
2022-10-15T02:56:11.867Z,3.59
2022-10-15T02:57:13.740Z,3.66
2022-10-15T02:58:15.829Z,3.65
2022-10-15T02:59:17.977Z,3.56
2022-10-15T03:00:20.223Z,3.58
2022-10-15T03:01:22.475Z,3.59
2022-10-15T03:02:24.585Z,3.63
2022-10-15T03:03:26.543Z,3.60
2022-10-15T03:04:28.833Z,3.59
2022-10-15T03:05:31.080Z,3.55
2022-10-15T03:06:33.321Z,3.57
2022-10-15T03:07:35.641Z,3.58
2022-10-15T03:08:37.528Z,3.63
2022-10-15T03:09:39.462Z,3.63
2022-10-15T03:10:41.781Z,3.71
2022-10-15T03:11:44.485Z,3.64
2022-10-15T03:12:46.483Z,3.68
2022-10-15T03:13:48.520Z,3.69
2022-10-15T03:14:50.612Z,3.69
2022-10-15T03:15:52.953Z,3.69
2022-10-15T03:16:55.580Z,3.71
2022-10-15T03:17:57.842Z,3.72
2022-10-15T03:18:59.837Z,3.71
2022-10-15T03:20:01.865Z,3.69
2022-10-15T03:21:04.360Z,3.67
2022-10-15T03:22:06.687Z,3.69
2022-10-15T03:23:08.730Z,3.69
2022-10-15T03:24:10.631Z,3.68
2022-10-15T03:25:13.246Z,3.69
2022-10-15T03:26:16.133Z,3.71
2022-10-15T03:27:18.214Z,3.73
2022-10-15T03:28:22.019Z,3.76
2022-10-15T03:29:24.139Z,3.80
2022-10-15T03:30:26.114Z,3.72
2022-10-15T03:31:27.984Z,3.67
2022-10-15T03:32:32.997Z,3.61
2022-10-15T03:33:34.005Z,3.61
2022-10-15T03:34:36.475Z,3.68
2022-10-15T03:35:39.133Z,3.71
2022-10-15T03:36:41.139Z,3.65
2022-10-15T03:37:43.191Z,3.68
2022-10-15T03:38:45.066Z,3.64
2022-10-15T03:39:46.943Z,3.62
2022-10-15T03:40:48.923Z,3.69
2022-10-15T03:41:53.915Z,3.65
2022-10-15T03:42:56.255Z,3.64
2022-10-15T03:44:02.922Z,3.61
2022-10-15T03:45:05.828Z,3.60
2022-10-15T03:46:07.954Z,3.62
2022-10-15T03:47:09.908Z,3.70
2022-10-15T03:48:11.910Z,3.77
2022-10-15T03:49:13.800Z,3.76
2022-10-15T03:50:16.484Z,3.76
2022-10-15T03:51:22.698Z,3.81
2022-10-15T03:52:23.013Z,3.85
2022-10-15T03:53:25.426Z,3.86
2022-10-15T03:54:27.306Z,3.88
2022-10-15T03:55:29.197Z,3.89
2022-10-15T03:56:31.190Z,3.92
2022-10-15T03:57:33.468Z,3.83
2022-10-15T03:58:35.845Z,3.86
2022-10-15T03:59:37.779Z,3.82
2022-10-15T04:00:44.432Z,3.80
2022-10-15T04:01:46.613Z,3.79
2022-10-15T04:02:48.612Z,3.81
2022-10-15T04:03:53.292Z,3.81
2022-10-15T04:04:55.199Z,3.84
2022-10-15T04:05:59.817Z,3.83
2022-10-15T04:07:01.027Z,3.85
2022-10-15T04:08:03.754Z,3.85
2022-10-15T04:09:05.827Z,3.83
2022-10-15T04:10:08.835Z,3.83
2022-10-15T04:11:10.715Z,3.81
2022-10-15T04:12:13.215Z,3.87
2022-10-15T04:13:15.143Z,3.88
2022-10-15T04:14:17.085Z,3.91
2022-10-15T04:15:18.944Z,3.92
2022-10-15T04:16:21.044Z,3.95
2022-10-15T04:17:22.936Z,3.93
2022-10-15T04:18:24.927Z,3.94
2022-10-15T04:19:27.180Z,3.91
2022-10-15T04:20:29.165Z,3.89
2022-10-15T04:21:31.350Z,3.85
2022-10-15T04:22:33.438Z,3.82
2022-10-15T04:23:35.424Z,3.81
2022-10-15T04:24:37.341Z,3.84
2022-10-15T04:25:39.722Z,3.85
2022-10-15T04:26:41.957Z,3.86
2022-10-15T04:27:44.047Z,3.86
2022-10-15T04:28:47.923Z,3.89
2022-10-15T04:29:50.098Z,3.88
2022-10-15T04:32:14.467Z,4.01
2022-10-15T04:33:16.474Z,3.93
2022-10-15T04:34:18.548Z,3.88
2022-10-15T04:35:21.674Z,3.87
2022-10-15T04:36:23.883Z,3.86
2022-10-15T04:37:25.947Z,3.87
2022-10-15T04:38:28.777Z,3.87
2022-10-15T04:39:30.787Z,3.92
2022-10-15T04:40:32.764Z,3.96
2022-10-15T04:41:34.998Z,3.95
2022-10-15T04:42:37.842Z,3.91
2022-10-15T04:43:39.764Z,3.96
2022-10-15T04:44:41.758Z,3.97
2022-10-15T04:45:43.650Z,3.97
2022-10-15T04:46:45.846Z,3.97
2022-10-15T04:47:47.726Z,3.92
2022-10-15T04:48:49.902Z,3.96
2022-10-15T04:49:51.861Z,3.92
2022-10-15T04:50:54.227Z,3.94
2022-10-15T04:51:56.135Z,3.95
2022-10-15T04:52:59.135Z,3.88
2022-10-15T04:54:07.575Z,3.90
2022-10-15T04:55:09.817Z,3.82
2022-10-15T04:56:15.195Z,3.88
2022-10-15T04:57:17.216Z,3.93
2022-10-15T04:58:19.104Z,3.92
2022-10-15T04:59:21.006Z,3.95
2022-10-15T05:00:22.999Z,3.98
2022-10-15T05:01:24.874Z,3.98
2022-10-15T05:02:26.855Z,3.94
2022-10-15T05:03:30.141Z,3.91
2022-10-15T05:04:32.104Z,3.89
2022-10-15T05:05:34.123Z,3.93
2022-10-15T05:06:36.090Z,3.96
2022-10-15T05:07:38.001Z,3.94
2022-10-15T05:08:40.003Z,3.95
2022-10-15T05:09:46.181Z,3.99
2022-10-15T05:10:45.985Z,3.99
2022-10-15T05:11:48.090Z,3.96
2022-10-15T05:12:51.567Z,3.95
2022-10-15T05:13:57.910Z,3.99
2022-10-15T05:14:59.941Z,3.98
2022-10-15T05:16:17.396Z,4.04
2022-10-15T05:17:19.476Z,4.03
2022-10-15T05:18:21.514Z,4.03
2022-10-15T05:19:23.395Z,4.03
2022-10-15T05:20:25.445Z,4.04
2022-10-15T05:21:28.705Z,3.98
2022-10-15T05:22:30.762Z,4.08
2022-10-15T05:23:32.955Z,4.07
2022-10-15T05:24:34.847Z,4.10
2022-10-15T05:25:36.960Z,4.12
2022-10-15T05:26:39.306Z,4.14
2022-10-15T05:27:41.187Z,4.17
2022-10-15T05:28:43.315Z,4.22
2022-10-15T05:29:45.679Z,4.26
2022-10-15T05:30:47.859Z,4.28
2022-10-15T05:31:51.203Z,4.27
2022-10-15T05:32:55.113Z,4.34
2022-10-15T05:34:03.482Z,4.46
2022-10-15T05:35:06.934Z,4.46
2022-10-15T05:36:21.826Z,4.48
2022-10-15T05:37:23.900Z,4.42
2022-10-15T05:38:26.186Z,4.45
2022-10-15T05:39:28.064Z,4.47
2022-10-15T05:40:30.289Z,4.44
2022-10-15T05:41:32.248Z,4.56
2022-10-15T05:42:34.291Z,4.53
2022-10-15T05:43:40.316Z,4.53
2022-10-15T05:44:40.368Z,4.51
2022-10-15T05:45:42.433Z,4.54
2022-10-15T05:46:44.530Z,4.49
2022-10-15T05:47:46.401Z,4.49
2022-10-15T05:48:50.970Z,4.48
2022-10-15T05:49:52.912Z,4.53
2022-10-15T05:51:01.057Z,4.58
2022-10-15T05:52:03.478Z,4.55
2022-10-15T05:53:05.647Z,4.61
2022-10-15T05:54:07.547Z,4.64
2022-10-15T05:55:09.413Z,4.62
2022-10-15T05:56:13.063Z,4.58
2022-10-15T05:57:14.956Z,4.57
2022-10-15T05:58:17.002Z,4.52
2022-10-15T05:59:19.009Z,4.52
2022-10-15T06:00:20.994Z,4.55
2022-10-15T06:01:23.067Z,4.55
2022-10-15T06:02:25.383Z,4.59
2022-10-15T06:03:28.531Z,4.64
2022-10-15T06:04:33.287Z,4.64
2022-10-15T06:05:34.452Z,4.78
2022-10-15T06:06:36.517Z,4.81
2022-10-15T06:07:38.598Z,4.84
2022-10-15T06:08:40.738Z,4.88
2022-10-15T06:09:42.651Z,4.98
2022-10-15T06:10:45.053Z,5.04
2022-10-15T06:11:46.977Z,5.20
2022-10-15T06:12:50.394Z,5.33
2022-10-15T06:13:52.958Z,5.43
2022-10-15T06:14:55.312Z,5.57
2022-10-15T06:15:57.921Z,5.74
2022-10-15T06:16:59.908Z,5.88
2022-10-15T06:18:01.828Z,6.00
2022-10-15T06:19:03.715Z,6.14
2022-10-15T06:20:06.728Z,6.38
2022-10-15T06:21:10.744Z,6.51
2022-10-15T06:22:12.658Z,6.63
2022-10-15T06:23:14.594Z,6.73
2022-10-15T06:24:16.477Z,6.78
2022-10-15T06:25:18.378Z,6.86
2022-10-15T06:26:20.389Z,6.94
2022-10-15T06:27:22.769Z,7.03
2022-10-15T06:28:25.310Z,7.17
2022-10-15T06:29:27.367Z,7.33
2022-10-15T06:30:29.360Z,7.53
2022-10-15T06:31:31.763Z,7.74
2022-10-15T06:32:33.765Z,8.02
2022-10-15T06:33:36.019Z,8.11
2022-10-15T06:34:37.935Z,8.27
2022-10-15T06:35:39.885Z,8.32
2022-10-15T06:36:41.996Z,8.23
2022-10-15T06:37:44.264Z,8.29
2022-10-15T06:38:47.097Z,8.32
2022-10-15T06:39:49.860Z,8.37
2022-10-15T06:40:52.150Z,8.47
2022-10-15T06:41:54.146Z,8.55
2022-10-15T06:43:05.601Z,8.61
2022-10-15T06:44:07.486Z,8.78
2022-10-15T06:45:10.887Z,8.85
2022-10-15T06:46:13.268Z,8.90
2022-10-15T06:47:15.566Z,8.92
2022-10-15T06:48:18.152Z,9.02
2022-10-15T06:49:20.044Z,8.96
2022-10-15T06:50:22.034Z,9.08
2022-10-15T06:51:23.942Z,9.14
2022-10-15T06:52:28.287Z,9.17
2022-10-15T06:53:30.670Z,9.02
2022-10-15T06:54:32.592Z,9.10
2022-10-15T06:55:35.337Z,8.75
2022-10-15T06:56:37.364Z,9.00
2022-10-15T06:57:39.333Z,9.24
2022-10-15T06:58:42.322Z,9.38
2022-10-15T06:59:44.331Z,9.45
2022-10-15T07:00:46.413Z,9.55
2022-10-15T07:01:48.288Z,9.55
2022-10-15T07:02:50.926Z,9.19
2022-10-15T07:03:52.983Z,9.47
2022-10-15T07:04:54.919Z,9.69
2022-10-15T07:06:05.558Z,9.57
2022-10-15T07:07:07.520Z,9.75
2022-10-15T07:08:11.594Z,9.87
2022-10-15T07:09:14.152Z,9.50
2022-10-15T07:10:16.799Z,9.35
2022-10-15T07:11:19.275Z,9.60
2022-10-15T07:12:21.823Z,9.86
2022-10-15T07:13:24.301Z,10.02
2022-10-15T07:14:26.213Z,10.18
2022-10-15T07:15:28.841Z,10.29
2022-10-15T07:16:30.946Z,10.39
2022-10-15T07:17:32.839Z,10.50
2022-10-15T07:18:35.538Z,10.57
2022-10-15T07:19:37.503Z,10.68
2022-10-15T07:20:39.504Z,10.77
2022-10-15T07:21:41.705Z,10.75
2022-10-15T07:22:44.663Z,10.84
2022-10-15T07:23:46.586Z,10.90
2022-10-15T07:24:48.459Z,10.98
2022-10-15T07:25:50.351Z,10.93
2022-10-15T07:26:52.463Z,11.05
2022-10-15T07:27:55.619Z,11.15
2022-10-15T07:28:57.823Z,11.24
2022-10-15T07:30:00.140Z,11.35
2022-10-15T07:31:04.800Z,11.43
2022-10-15T07:32:06.765Z,11.49
2022-10-15T07:33:08.868Z,11.57
2022-10-15T07:34:10.745Z,11.58
2022-10-15T07:35:12.965Z,11.57
2022-10-15T07:36:15.449Z,11.35
2022-10-15T07:37:17.346Z,11.11
2022-10-15T07:38:19.281Z,11.51
2022-10-15T07:39:21.272Z,11.61
2022-10-15T07:40:23.292Z,11.59
2022-10-15T07:41:25.184Z,11.70
2022-10-15T07:42:27.556Z,11.61
2022-10-15T07:43:29.544Z,11.57
2022-10-15T07:44:31.844Z,11.74
2022-10-15T07:45:38.488Z,11.86
2022-10-15T07:46:41.726Z,11.91
2022-10-15T07:47:43.691Z,11.99
2022-10-15T07:48:45.562Z,11.86
2022-10-15T07:49:47.751Z,11.34
2022-10-15T07:50:57.620Z,11.03
2022-10-15T07:51:59.563Z,11.27
2022-10-15T07:53:01.458Z,11.44
2022-10-15T07:54:04.177Z,11.63
2022-10-15T07:55:07.508Z,11.75
2022-10-15T07:56:11.941Z,11.90
2022-10-15T07:57:13.913Z,12.01
2022-10-15T07:58:16.820Z,12.00
2022-10-15T07:59:18.702Z,11.92
2022-10-15T08:00:20.713Z,11.50
2022-10-15T08:01:22.853Z,11.20
2022-10-15T08:02:25.474Z,11.42
2022-10-15T08:03:28.362Z,11.63
2022-10-15T08:04:30.455Z,11.75
2022-10-15T08:05:32.963Z,11.75
2022-10-15T08:06:35.348Z,11.81
2022-10-15T08:07:37.226Z,11.87
2022-10-15T08:08:39.093Z,11.91
2022-10-15T08:09:41.018Z,11.97
2022-10-15T08:10:43.045Z,11.95
2022-10-15T08:11:45.061Z,12.03
2022-10-15T08:12:47.114Z,12.16
2022-10-15T08:13:49.094Z,12.11
2022-10-15T08:14:50.989Z,12.18
2022-10-15T08:15:56.293Z,12.20
2022-10-15T08:16:57.035Z,12.12
2022-10-15T08:17:59.248Z,12.23
2022-10-15T08:19:01.259Z,12.25
2022-10-15T08:20:04.516Z,12.16
2022-10-15T08:21:07.108Z,12.18
2022-10-15T08:22:09.014Z,12.15
2022-10-15T08:23:15.871Z,11.95
2022-10-15T08:24:17.947Z,11.87
2022-10-15T08:25:20.033Z,12.02
2022-10-15T08:26:22.288Z,12.16
2022-10-15T08:27:24.603Z,12.01
2022-10-15T08:28:27.827Z,12.17
2022-10-15T08:29:29.920Z,12.17
2022-10-15T08:30:31.907Z,12.21
2022-10-15T08:31:33.796Z,12.20
2022-10-15T08:32:35.656Z,12.18
2022-10-15T08:33:37.772Z,12.14
2022-10-15T08:34:39.701Z,12.16
2022-10-15T08:35:42.885Z,12.07
2022-10-15T08:36:44.975Z,11.98
2022-10-15T08:37:47.005Z,12.07
2022-10-15T08:38:48.975Z,12.13
2022-10-15T08:39:50.852Z,12.09
2022-10-15T08:40:58.778Z,12.03
2022-10-15T08:42:13.514Z,12.07
2022-10-15T08:43:31.417Z,12.05
2022-10-15T08:44:43.279Z,11.96
2022-10-15T08:45:46.893Z,11.90
2022-10-15T08:46:55.977Z,11.92
2022-10-15T08:48:07.747Z,11.95
2022-10-15T08:50:29.430Z,12.31
2022-10-15T08:51:35.245Z,11.92
2022-10-15T08:52:49.669Z,11.91
2022-10-15T08:53:58.528Z,12.10
2022-10-15T08:55:01.670Z,12.11
2022-10-15T08:56:07.712Z,12.14
2022-10-15T08:57:19.264Z,12.16
2022-10-15T08:58:30.870Z,11.94
2022-10-15T09:00:01.202Z,12.05
2022-10-15T09:01:06.882Z,12.13
2022-10-15T09:02:18.730Z,12.17
2022-10-15T09:03:53.840Z,12.16
2022-10-15T09:05:11.811Z,12.24
2022-10-15T09:06:35.603Z,12.16
2022-10-15T09:07:54.542Z,12.14
2022-10-15T09:09:15.982Z,12.19
2022-10-15T09:10:24.806Z,12.20
2022-10-15T09:11:48.634Z,12.28
2022-10-15T09:12:57.489Z,12.28
2022-10-15T09:14:00.019Z,12.29
2022-10-15T09:15:04.717Z,12.34
2022-10-15T09:16:22.877Z,12.29
2022-10-15T09:17:28.591Z,12.15
2022-10-15T09:18:33.530Z,12.29
2022-10-15T09:19:37.230Z,12.32
2022-10-15T09:20:39.636Z,12.27
2022-10-15T09:21:42.431Z,12.18
2022-10-15T09:22:47.224Z,12.23
2022-10-15T09:23:49.384Z,12.31
2022-10-15T09:24:52.171Z,12.25
2022-10-15T09:26:15.839Z,12.31
2022-10-15T09:27:35.636Z,12.28
2022-10-15T09:28:56.020Z,12.05
2022-10-15T09:30:02.002Z,12.15
2022-10-15T09:31:06.694Z,12.28
2022-10-15T09:32:27.608Z,12.30
2022-10-15T09:33:48.775Z,12.34
2022-10-15T09:35:00.745Z,12.35
2022-10-15T09:36:31.119Z,12.35
2022-10-15T09:38:05.852Z,12.35
2022-10-15T09:39:40.440Z,12.39
2022-10-15T09:40:55.777Z,12.28
2022-10-15T09:42:01.946Z,12.35
2022-10-15T09:43:06.063Z,12.41
2022-10-15T09:44:12.663Z,12.38
2022-10-15T09:45:16.460Z,12.33
2022-10-15T09:46:19.874Z,12.31
2022-10-15T09:47:25.307Z,12.37
2022-10-15T09:48:29.958Z,12.34
2022-10-15T09:49:36.345Z,12.34
2022-10-15T09:51:01.701Z,12.42
2022-10-15T09:52:26.228Z,12.33
2022-10-15T09:53:49.157Z,12.43
2022-10-15T09:54:58.084Z,12.55
2022-10-15T09:56:18.711Z,12.48
2022-10-15T09:57:22.982Z,12.48
2022-10-15T09:58:31.888Z,12.45
2022-10-15T09:59:33.846Z,12.45
2022-10-15T10:00:55.249Z,12.47
2022-10-15T10:02:16.361Z,12.51
2022-10-15T10:03:18.645Z,12.55
2022-10-15T10:04:20.709Z,12.57
2022-10-15T10:05:31.775Z,12.49
2022-10-15T10:06:46.587Z,12.51
2022-10-15T10:07:48.678Z,12.50
2022-10-15T10:08:59.120Z,12.60
2022-10-15T10:10:22.857Z,12.60
2022-10-15T10:11:26.547Z,12.61
2022-10-15T10:12:32.032Z,12.54
2022-10-15T10:13:37.779Z,12.64
2022-10-15T10:14:46.495Z,12.63
2022-10-15T10:15:56.074Z,12.66
2022-10-15T10:17:14.790Z,12.53
2022-10-15T10:18:22.571Z,12.59
2022-10-15T10:19:24.913Z,12.47
2022-10-15T10:20:29.914Z,12.55
2022-10-15T10:21:35.316Z,12.62
2022-10-15T10:22:51.984Z,12.57
2022-10-15T10:23:53.959Z,12.60
2022-10-15T10:24:56.035Z,12.67
2022-10-15T10:25:58.904Z,12.55
2022-10-15T10:27:02.133Z,12.57
2022-10-15T10:28:13.878Z,12.64
2022-10-15T10:29:33.714Z,12.64
2022-10-15T10:30:26.254Z,12.58
2022-10-15T10:31:31.620Z,12.55
2022-10-15T10:32:34.542Z,12.57
2022-10-15T10:33:43.122Z,12.66
2022-10-15T10:34:50.077Z,12.68
2022-10-15T10:35:51.264Z,12.73
2022-10-15T10:36:54.391Z,12.76
2022-10-15T10:37:56.881Z,12.74
2022-10-15T10:39:14.750Z,12.70
2022-10-15T10:41:55.139Z,12.81
2022-10-15T10:43:17.886Z,12.69
2022-10-15T10:44:22.996Z,12.61
2022-10-15T10:46:26.924Z,12.62
2022-10-15T10:47:32.602Z,12.57
2022-10-15T10:48:44.417Z,12.56
2022-10-15T10:49:53.073Z,12.56
2022-10-15T10:51:12.892Z,12.64
2022-10-15T10:52:24.736Z,12.71
2022-10-15T10:53:26.703Z,12.68
2022-10-15T10:54:29.966Z,12.48
2022-10-15T10:55:36.120Z,12.63
2022-10-15T10:56:41.240Z,12.67
2022-10-15T10:57:52.478Z,12.68
2022-10-15T10:59:03.840Z,12.71
2022-10-15T11:00:08.190Z,12.71
2022-10-15T11:01:12.892Z,12.68
2022-10-15T11:02:15.131Z,12.64
2022-10-15T11:03:32.797Z,12.64
2022-10-15T11:04:37.639Z,12.70
2022-10-15T11:05:40.946Z,12.73
2022-10-15T11:07:08.009Z,12.69
2022-10-15T11:08:47.637Z,12.66
2022-10-15T11:09:58.137Z,12.84
2022-10-15T11:11:23.869Z,12.76
2022-10-15T11:12:35.306Z,12.74
2022-10-15T11:14:13.317Z,12.81
2022-10-15T11:15:51.445Z,12.84
2022-10-15T11:17:00.046Z,12.46
2022-10-15T11:18:12.168Z,12.77
2022-10-15T11:19:50.432Z,12.79
2022-10-15T11:20:49.782Z,12.78
2022-10-15T11:21:57.646Z,12.75
2022-10-15T11:23:29.777Z,12.43
2022-10-15T11:25:06.038Z,12.79
2022-10-15T11:26:16.302Z,12.87
2022-10-15T11:27:25.358Z,12.45
2022-10-15T11:28:47.960Z,12.96
2022-10-15T11:30:15.154Z,12.87
2022-10-15T11:32:03.010Z,12.75
2022-10-15T11:33:22.753Z,12.83
2022-10-15T11:34:43.698Z,12.89
2022-10-15T11:36:07.093Z,12.92
2022-10-15T11:37:26.045Z,12.83
2022-10-15T11:38:31.770Z,12.77
2022-10-15T11:39:55.793Z,12.73
2022-10-15T11:41:10.634Z,12.74
2022-10-15T11:42:19.345Z,12.71
2022-10-15T11:43:27.796Z,12.77
2022-10-15T11:45:05.682Z,12.74
2022-10-15T11:46:26.880Z,12.77
2022-10-15T11:47:41.708Z,12.78
2022-10-15T11:49:05.558Z,12.81
2022-10-15T11:50:32.645Z,12.65
2022-10-15T11:51:49.925Z,12.79
2022-10-15T11:52:55.931Z,12.83
2022-10-15T11:55:40.552Z,12.85
2022-10-15T11:56:49.461Z,12.74
2022-10-15T11:57:55.394Z,12.69
2022-10-15T11:59:19.137Z,12.71
2022-10-15T12:00:31.251Z,12.62
2022-10-15T12:01:49.363Z,12.57
2022-10-15T12:02:54.169Z,12.33
2022-10-15T12:04:00.059Z,12.51
2022-10-15T12:05:11.639Z,12.59
2022-10-15T12:06:17.417Z,12.60
2022-10-15T12:07:25.718Z,12.59
2022-10-15T12:08:31.443Z,12.55
2022-10-15T12:09:39.314Z,12.56
2022-10-15T12:10:54.182Z,12.55
2022-10-15T12:12:28.504Z,12.61
2022-10-15T12:13:40.372Z,12.64
2022-10-15T12:15:09.236Z,12.64
2022-10-15T12:16:15.237Z,12.71
2022-10-15T12:17:37.665Z,12.70
2022-10-15T12:18:58.515Z,12.71
2022-10-15T12:20:09.973Z,12.69
2022-10-15T12:21:33.910Z,12.56
2022-10-15T12:22:39.331Z,12.50
2022-10-15T12:23:41.804Z,12.58
2022-10-15T12:24:50.353Z,12.62
2022-10-15T12:25:52.652Z,12.60
2022-10-15T12:26:55.775Z,12.56
2022-10-15T12:28:16.932Z,12.50
2022-10-15T12:29:26.075Z,12.55
2022-10-15T12:30:36.530Z,12.53
2022-10-15T12:31:51.300Z,12.60
2022-10-15T12:32:54.394Z,12.58
2022-10-15T12:33:57.195Z,12.56
2022-10-15T12:35:02.133Z,12.53
2022-10-15T12:36:26.112Z,12.58
2022-10-15T12:37:31.057Z,12.45
2022-10-15T12:38:35.803Z,12.44
2022-10-15T12:39:51.761Z,12.49
2022-10-15T12:40:46.629Z,12.54
2022-10-15T12:41:50.281Z,12.07
2022-10-15T12:43:04.364Z,12.46
2022-10-15T12:44:22.214Z,12.48
2022-10-15T12:45:27.796Z,12.49
2022-10-15T12:46:39.047Z,12.45
2022-10-15T12:48:07.887Z,12.39
2022-10-15T12:49:34.740Z,12.42
2022-10-15T12:50:36.904Z,12.47
2022-10-15T12:51:39.133Z,12.46
2022-10-15T12:52:59.744Z,12.43
2022-10-15T12:54:03.930Z,12.41
2022-10-15T12:55:24.440Z,12.46
2022-10-15T12:56:40.447Z,12.45
2022-10-15T12:57:49.258Z,12.44
2022-10-15T12:58:53.880Z,12.21
2022-10-15T13:00:01.098Z,12.37
2022-10-15T13:01:15.893Z,12.33
2022-10-15T13:03:53.194Z,12.35
2022-10-15T13:04:55.441Z,12.24
2022-10-15T13:06:18.246Z,12.23
2022-10-15T13:07:22.905Z,12.23
2022-10-15T13:08:25.967Z,12.20
2022-10-15T13:09:29.837Z,12.20
2022-10-15T13:10:38.955Z,12.26
2022-10-15T13:11:52.826Z,12.23
2022-10-15T13:12:58.579Z,12.22
2022-10-15T13:14:13.303Z,12.15
2022-10-15T13:15:26.490Z,12.15
2022-10-15T13:16:30.264Z,12.23
2022-10-15T13:17:32.929Z,12.29
2022-10-15T13:18:35.923Z,12.29
2022-10-15T13:19:41.800Z,12.26
2022-10-15T13:20:45.369Z,12.24
2022-10-15T13:21:55.301Z,12.24
2022-10-15T13:23:18.805Z,12.23
2022-10-15T13:24:16.976Z,12.26
2022-10-15T13:25:19.637Z,12.26
2022-10-15T13:26:27.994Z,12.19
2022-10-15T13:27:35.650Z,12.21
2022-10-15T13:28:40.077Z,12.17
2022-10-15T13:29:57.763Z,12.16
2022-10-15T13:31:04.586Z,12.16
2022-10-15T13:32:12.363Z,12.13
2022-10-15T13:33:15.151Z,11.94
2022-10-15T13:34:32.612Z,12.11
2022-10-15T13:35:38.199Z,12.13
2022-10-15T13:36:40.790Z,12.11
2022-10-15T13:37:45.440Z,12.11
2022-10-15T13:38:53.683Z,11.75
2022-10-15T13:39:55.831Z,12.10
2022-10-15T13:40:59.390Z,12.09
2022-10-15T13:42:16.693Z,12.01
2022-10-15T13:43:22.010Z,12.09
2022-10-15T13:44:24.463Z,12.10
2022-10-15T13:45:27.315Z,12.09
2022-10-15T13:47:52.144Z,12.18
2022-10-15T13:48:59.677Z,12.05
2022-10-15T13:50:14.282Z,12.02
2022-10-15T13:51:16.528Z,12.06
2022-10-15T13:52:18.789Z,12.01
2022-10-15T13:53:33.195Z,12.02
2022-10-15T13:54:35.470Z,12.00
2022-10-15T13:55:49.796Z,12.00
2022-10-15T13:56:54.749Z,12.02
2022-10-15T13:58:03.708Z,11.98
2022-10-15T13:59:05.931Z,11.96
2022-10-15T14:00:20.667Z,11.96
2022-10-15T14:01:24.681Z,11.95
2022-10-15T14:02:26.777Z,11.97
2022-10-15T14:03:31.441Z,11.91
2022-10-15T14:04:33.602Z,11.91
2022-10-15T14:05:35.981Z,11.91
2022-10-15T14:06:37.972Z,11.91
2022-10-15T14:07:39.972Z,11.86
2022-10-15T14:08:41.928Z,11.85
2022-10-15T14:09:46.190Z,11.79
2022-10-15T14:10:50.403Z,11.81
2022-10-15T14:11:53.733Z,11.81
2022-10-15T14:12:55.646Z,11.54
2022-10-15T14:13:58.743Z,11.76
2022-10-15T14:15:38.189Z,11.77
2022-10-15T14:16:43.996Z,11.76
2022-10-15T14:17:49.681Z,11.68
2022-10-15T14:18:58.377Z,11.66
2022-10-15T14:21:13.606Z,11.60
2022-10-15T14:22:18.878Z,11.61
2022-10-15T14:23:23.630Z,11.56
2022-10-15T14:24:34.997Z,11.52
2022-10-15T14:25:37.557Z,11.50
2022-10-15T14:26:40.358Z,11.52
2022-10-15T14:27:44.828Z,11.52
2022-10-15T14:28:49.814Z,11.47
2022-10-15T14:29:58.310Z,11.49
2022-10-15T14:31:01.374Z,11.43
2022-10-15T14:32:25.707Z,11.39
2022-10-15T14:33:40.283Z,11.36
2022-10-15T14:34:42.327Z,11.32
2022-10-15T14:35:44.343Z,11.28
2022-10-15T14:36:46.543Z,11.26
2022-10-15T14:38:01.039Z,11.22
2022-10-15T14:39:23.771Z,11.19
2022-10-15T14:40:26.165Z,11.19
2022-10-15T14:41:31.689Z,11.13
2022-10-15T14:42:36.206Z,11.12
2022-10-15T14:43:38.362Z,11.08
2022-10-15T14:44:46.642Z,11.04
2022-10-15T14:45:55.729Z,10.64
2022-10-15T14:47:02.698Z,10.96